sensor_id;sensor_type;location;lat;lon;timestamp;temperature;humidity
42979;DHT22;28616;44.746;19.678;2023-02-01T00:00:24;2.40;99.90
42979;DHT22;28616;44.746;19.678;2023-02-01T00:02:50;2.40;99.90
42979;DHT22;28616;44.746;19.678;2023-02-01T00:05:16;2.40;99.90
42979;DHT22;28616;44.746;19.678;2023-02-01T00:07:41;2.50;99.90
42979;DHT22;28616;44.746;19.678;2023-02-01T00:10:08;2.50;99.90
42979;DHT22;28616;44.746;19.678;2023-02-01T00:12:34;2.50;99.90
42979;DHT22;28616;44.746;19.678;2023-02-01T00:14:59;2.50;99.90
42979;DHT22;28616;44.746;19.678;2023-02-01T00:17:25;2.50;99.90
42979;DHT22;28616;44.746;19.678;2023-02-01T00:19:51;2.50;99.90
42979;DHT22;28616;44.746;19.678;2023-02-01T00:22:16;2.50;99.90
42979;DHT22;28616;44.746;19.678;2023-02-01T00:24:42;2.50;99.90
42979;DHT22;28616;44.746;19.678;2023-02-01T00:27:08;2.50;99.90
42979;DHT22;28616;44.746;19.678;2023-02-01T00:29:33;2.50;99.90
42979;DHT22;28616;44.746;19.678;2023-02-01T00:31:59;2.50;99.90
42979;DHT22;28616;44.746;19.678;2023-02-01T00:34:25;2.50;99.90
42979;DHT22;28616;44.746;19.678;2023-02-01T00:36:51;2.50;99.90
42979;DHT22;28616;44.746;19.678;2023-02-01T00:39:17;2.50;99.90
42979;DHT22;28616;44.746;19.678;2023-02-01T00:41:43;2.60;99.90
42979;DHT22;28616;44.746;19.678;2023-02-01T00:44:09;2.60;99.90
42979;DHT22;28616;44.746;19.678;2023-02-01T00:46:35;2.60;99.90
42979;DHT22;28616;44.746;19.678;2023-02-01T00:49:01;2.60;99.90
42979;DHT22;28616;44.746;19.678;2023-02-01T00:51:28;2.60;99.90
42979;DHT22;28616;44.746;19.678;2023-02-01T00:53:54;2.60;99.90
42979;DHT22;28616;44.746;19.678;2023-02-01T00:56:20;2.60;99.90
42979;DHT22;28616;44.746;19.678;2023-02-01T00:58:46;2.60;99.90
42979;DHT22;28616;44.746;19.678;2023-02-01T01:01:20;2.60;99.90
42979;DHT22;28616;44.746;19.678;2023-02-01T01:03:49;2.60;99.90
42979;DHT22;28616;44.746;19.678;2023-02-01T01:06:19;2.60;99.90
42979;DHT22;28616;44.746;19.678;2023-02-01T01:08:46;2.50;99.90
42979;DHT22;28616;44.746;19.678;2023-02-01T01:11:17;2.50;99.90
42979;DHT22;28616;44.746;19.678;2023-02-01T01:13:46;2.50;99.90
42979;DHT22;28616;44.746;19.678;2023-02-01T01:16:12;2.40;99.90
42979;DHT22;28616;44.746;19.678;2023-02-01T01:18:38;2.40;99.90
42979;DHT22;28616;44.746;19.678;2023-02-01T01:21:05;2.40;99.90
42979;DHT22;28616;44.746;19.678;2023-02-01T01:23:31;2.30;99.90
42979;DHT22;28616;44.746;19.678;2023-02-01T01:25:57;2.30;99.90
42979;DHT22;28616;44.746;19.678;2023-02-01T01:28:23;2.30;99.90
42979;DHT22;28616;44.746;19.678;2023-02-01T01:30:49;2.20;99.90
42979;DHT22;28616;44.746;19.678;2023-02-01T01:33:15;2.20;99.90
42979;DHT22;28616;44.746;19.678;2023-02-01T01:35:40;2.20;99.90
42979;DHT22;28616;44.746;19.678;2023-02-01T01:38:06;2.10;99.90
42979;DHT22;28616;44.746;19.678;2023-02-01T01:40:32;2.10;99.90
42979;DHT22;28616;44.746;19.678;2023-02-01T01:42:58;2.00;99.90
42979;DHT22;28616;44.746;19.678;2023-02-01T01:45:27;2.00;99.90
42979;DHT22;28616;44.746;19.678;2023-02-01T01:47:59;1.90;99.90
42979;DHT22;28616;44.746;19.678;2023-02-01T01:50:40;1.90;99.90
42979;DHT22;28616;44.746;19.678;2023-02-01T01:53:09;1.90;99.90
42979;DHT22;28616;44.746;19.678;2023-02-01T01:55:39;1.80;99.90
42979;DHT22;28616;44.746;19.678;2023-02-01T01:58:13;1.80;99.90
42979;DHT22;28616;44.746;19.678;2023-02-01T02:00:40;1.70;99.90
42979;DHT22;28616;44.746;19.678;2023-02-01T02:03:18;1.70;99.90
42979;DHT22;28616;44.746;19.678;2023-02-01T02:05:46;1.80;99.90
42979;DHT22;28616;44.746;19.678;2023-02-01T02:08:13;1.80;99.90
42979;DHT22;28616;44.746;19.678;2023-02-01T02:10:39;1.80;99.90
42979;DHT22;28616;44.746;19.678;2023-02-01T02:13:23;1.80;99.90
42979;DHT22;28616;44.746;19.678;2023-02-01T02:19:02;1.90;99.90
42979;DHT22;28616;44.746;19.678;2023-02-01T02:22:04;1.90;99.90
42979;DHT22;28616;44.746;19.678;2023-02-01T02:41:15;1.90;99.90
42979;DHT22;28616;44.746;19.678;2023-02-01T02:44:10;1.90;99.90
42979;DHT22;28616;44.746;19.678;2023-02-01T02:47:21;1.90;99.90
42979;DHT22;28616;44.746;19.678;2023-02-01T02:49:55;1.80;99.90
42979;DHT22;28616;44.746;19.678;2023-02-01T02:53:21;1.80;99.90
42979;DHT22;28616;44.746;19.678;2023-02-01T02:55:58;1.80;99.90
42979;DHT22;28616;44.746;19.678;2023-02-01T02:58:44;1.70;99.90
42979;DHT22;28616;44.746;19.678;2023-02-01T03:01:30;1.60;99.90
42979;DHT22;28616;44.746;19.678;2023-02-01T03:04:15;1.60;99.90
42979;DHT22;28616;44.746;19.678;2023-02-01T03:06:43;1.60;99.90
42979;DHT22;28616;44.746;19.678;2023-02-01T03:09:30;1.60;99.90
42979;DHT22;28616;44.746;19.678;2023-02-01T03:12:00;1.60;99.90
42979;DHT22;28616;44.746;19.678;2023-02-01T03:14:50;1.60;99.90
42979;DHT22;28616;44.746;19.678;2023-02-01T03:17:22;1.70;99.90
42979;DHT22;28616;44.746;19.678;2023-02-01T03:19:52;1.70;99.90
42979;DHT22;28616;44.746;19.678;2023-02-01T03:22:23;1.70;99.90
42979;DHT22;28616;44.746;19.678;2023-02-01T03:25:10;1.80;99.90
42979;DHT22;28616;44.746;19.678;2023-02-01T03:27:43;1.80;99.90
42979;DHT22;28616;44.746;19.678;2023-02-01T03:30:27;1.80;99.90
42979;DHT22;28616;44.746;19.678;2023-02-01T03:33:00;1.80;99.90
42979;DHT22;28616;44.746;19.678;2023-02-01T03:37:56;1.90;99.90
42979;DHT22;28616;44.746;19.678;2023-02-01T03:40:27;1.90;99.90
42979;DHT22;28616;44.746;19.678;2023-02-01T03:42:56;1.90;99.90
42979;DHT22;28616;44.746;19.678;2023-02-01T03:45:34;1.90;99.90
42979;DHT22;28616;44.746;19.678;2023-02-01T03:48:02;1.90;99.90
42979;DHT22;28616;44.746;19.678;2023-02-01T03:50:31;1.90;99.90
42979;DHT22;28616;44.746;19.678;2023-02-01T03:53:11;2.00;99.90
42979;DHT22;28616;44.746;19.678;2023-02-01T03:55:41;2.00;99.90
42979;DHT22;28616;44.746;19.678;2023-02-01T03:58:12;2.00;99.90
42979;DHT22;28616;44.746;19.678;2023-02-01T04:00:39;2.00;99.90
42979;DHT22;28616;44.746;19.678;2023-02-01T04:03:06;2.00;99.90
42979;DHT22;28616;44.746;19.678;2023-02-01T04:05:33;1.90;99.90
42979;DHT22;28616;44.746;19.678;2023-02-01T04:07:59;1.90;99.90
42979;DHT22;28616;44.746;19.678;2023-02-01T04:10:26;1.90;99.90
42979;DHT22;28616;44.746;19.678;2023-02-01T04:12:52;1.90;99.90
42979;DHT22;28616;44.746;19.678;2023-02-01T04:15:17;1.80;99.90
42979;DHT22;28616;44.746;19.678;2023-02-01T04:17:43;1.80;99.90
42979;DHT22;28616;44.746;19.678;2023-02-01T04:20:09;1.80;99.90
42979;DHT22;28616;44.746;19.678;2023-02-01T04:22:35;1.80;99.90
42979;DHT22;28616;44.746;19.678;2023-02-01T04:25:01;1.80;99.90
42979;DHT22;28616;44.746;19.678;2023-02-01T04:27:27;1.80;99.90
42979;DHT22;28616;44.746;19.678;2023-02-01T04:29:52;1.80;99.90
42979;DHT22;28616;44.746;19.678;2023-02-01T04:32:18;1.80;99.90
42979;DHT22;28616;44.746;19.678;2023-02-01T04:34:45;1.80;99.90
42979;DHT22;28616;44.746;19.678;2023-02-01T04:37:11;1.90;99.90
42979;DHT22;28616;44.746;19.678;2023-02-01T04:39:36;1.80;99.90
42979;DHT22;28616;44.746;19.678;2023-02-01T04:42:02;1.90;99.90
42979;DHT22;28616;44.746;19.678;2023-02-01T04:44:28;1.90;99.90
42979;DHT22;28616;44.746;19.678;2023-02-01T04:46:54;1.90;99.90
42979;DHT22;28616;44.746;19.678;2023-02-01T04:49:19;1.90;99.90
42979;DHT22;28616;44.746;19.678;2023-02-01T04:51:47;2.00;99.90
42979;DHT22;28616;44.746;19.678;2023-02-01T04:54:13;2.00;99.90
42979;DHT22;28616;44.746;19.678;2023-02-01T04:56:39;2.00;99.90
42979;DHT22;28616;44.746;19.678;2023-02-01T04:59:05;2.10;99.90
42979;DHT22;28616;44.746;19.678;2023-02-01T05:01:31;2.10;99.90
42979;DHT22;28616;44.746;19.678;2023-02-01T05:03:58;2.10;99.90
42979;DHT22;28616;44.746;19.678;2023-02-01T05:06:23;2.20;99.90
42979;DHT22;28616;44.746;19.678;2023-02-01T05:08:49;2.20;99.90
42979;DHT22;28616;44.746;19.678;2023-02-01T05:11:15;2.30;99.90
42979;DHT22;28616;44.746;19.678;2023-02-01T05:14:00;2.30;99.90
42979;DHT22;28616;44.746;19.678;2023-02-01T05:16:26;2.30;99.90
42979;DHT22;28616;44.746;19.678;2023-02-01T05:18:52;2.30;99.90
42979;DHT22;28616;44.746;19.678;2023-02-01T05:21:18;2.40;99.90
42979;DHT22;28616;44.746;19.678;2023-02-01T05:23:44;2.40;99.90
42979;DHT22;28616;44.746;19.678;2023-02-01T05:26:28;2.40;99.90
42979;DHT22;28616;44.746;19.678;2023-02-01T05:28:54;2.40;99.90
42979;DHT22;28616;44.746;19.678;2023-02-01T05:31:20;2.50;99.90
42979;DHT22;28616;44.746;19.678;2023-02-01T05:33:46;2.50;99.90
42979;DHT22;28616;44.746;19.678;2023-02-01T05:36:12;2.50;99.90
42979;DHT22;28616;44.746;19.678;2023-02-01T05:38:37;2.60;99.90
42979;DHT22;28616;44.746;19.678;2023-02-01T05:41:03;2.60;99.90
42979;DHT22;28616;44.746;19.678;2023-02-01T05:43:29;2.70;99.90
42979;DHT22;28616;44.746;19.678;2023-02-01T05:45:55;2.70;99.90
42979;DHT22;28616;44.746;19.678;2023-02-01T05:48:20;2.70;99.90
42979;DHT22;28616;44.746;19.678;2023-02-01T05:50:46;2.70;99.90
42979;DHT22;28616;44.746;19.678;2023-02-01T05:53:12;2.70;99.90
42979;DHT22;28616;44.746;19.678;2023-02-01T05:55:38;2.70;99.90
42979;DHT22;28616;44.746;19.678;2023-02-01T05:58:04;2.70;99.90
42979;DHT22;28616;44.746;19.678;2023-02-01T06:00:30;2.60;99.90
42979;DHT22;28616;44.746;19.678;2023-02-01T06:02:56;2.60;99.90
42979;DHT22;28616;44.746;19.678;2023-02-01T06:05:22;2.60;99.90
42979;DHT22;28616;44.746;19.678;2023-02-01T06:07:48;2.60;99.90
42979;DHT22;28616;44.746;19.678;2023-02-01T06:10:16;2.60;99.90
42979;DHT22;28616;44.746;19.678;2023-02-01T06:12:42;2.70;99.90
42979;DHT22;28616;44.746;19.678;2023-02-01T06:15:13;2.80;99.90
42979;DHT22;28616;44.746;19.678;2023-02-01T06:17:41;2.80;99.90
42979;DHT22;28616;44.746;19.678;2023-02-01T06:20:09;2.80;99.90
42979;DHT22;28616;44.746;19.678;2023-02-01T06:22:35;2.80;99.90
42979;DHT22;28616;44.746;19.678;2023-02-01T06:25:02;2.80;99.90
42979;DHT22;28616;44.746;19.678;2023-02-01T06:27:28;2.90;99.90
42979;DHT22;28616;44.746;19.678;2023-02-01T06:29:54;2.90;99.90
42979;DHT22;28616;44.746;19.678;2023-02-01T06:32:20;2.90;99.90
42979;DHT22;28616;44.746;19.678;2023-02-01T06:34:46;2.90;99.90
42979;DHT22;28616;44.746;19.678;2023-02-01T06:37:12;2.90;99.90
42979;DHT22;28616;44.746;19.678;2023-02-01T06:39:38;3.00;99.90
42979;DHT22;28616;44.746;19.678;2023-02-01T06:42:03;3.10;99.90
42979;DHT22;28616;44.746;19.678;2023-02-01T06:44:29;3.10;99.90
42979;DHT22;28616;44.746;19.678;2023-02-01T06:46:55;3.10;99.90
42979;DHT22;28616;44.746;19.678;2023-02-01T06:49:21;3.10;99.90
42979;DHT22;28616;44.746;19.678;2023-02-01T06:51:47;3.10;99.90
42979;DHT22;28616;44.746;19.678;2023-02-01T06:54:13;3.20;99.90
42979;DHT22;28616;44.746;19.678;2023-02-01T06:56:38;3.20;99.90
42979;DHT22;28616;44.746;19.678;2023-02-01T06:59:05;3.20;99.90
42979;DHT22;28616;44.746;19.678;2023-02-01T07:01:31;3.20;99.90
42979;DHT22;28616;44.746;19.678;2023-02-01T07:03:57;3.20;99.90
42979;DHT22;28616;44.746;19.678;2023-02-01T07:06:22;3.20;99.90
42979;DHT22;28616;44.746;19.678;2023-02-01T07:08:48;3.20;99.90
42979;DHT22;28616;44.746;19.678;2023-02-01T07:11:16;3.30;99.90
42979;DHT22;28616;44.746;19.678;2023-02-01T07:13:42;3.30;99.90
42979;DHT22;28616;44.746;19.678;2023-02-01T07:16:13;3.40;99.90
42979;DHT22;28616;44.746;19.678;2023-02-01T07:18:39;3.50;99.90
42979;DHT22;28616;44.746;19.678;2023-02-01T07:21:05;3.50;99.90
42979;DHT22;28616;44.746;19.678;2023-02-01T07:23:31;3.60;99.90
42979;DHT22;28616;44.746;19.678;2023-02-01T07:26:01;3.60;99.90
42979;DHT22;28616;44.746;19.678;2023-02-01T07:28:30;3.60;99.90
42979;DHT22;28616;44.746;19.678;2023-02-01T07:31:06;3.70;99.90
42979;DHT22;28616;44.746;19.678;2023-02-01T07:33:32;3.80;99.90
42979;DHT22;28616;44.746;19.678;2023-02-01T07:36:00;3.90;99.90
42979;DHT22;28616;44.746;19.678;2023-02-01T07:38:27;4.00;99.90
42979;DHT22;28616;44.746;19.678;2023-02-01T07:40:57;4.10;99.90
42979;DHT22;28616;44.746;19.678;2023-02-01T07:43:23;4.20;99.90
42979;DHT22;28616;44.746;19.678;2023-02-01T07:45:53;4.30;99.90
42979;DHT22;28616;44.746;19.678;2023-02-01T07:48:20;4.30;99.90
42979;DHT22;28616;44.746;19.678;2023-02-01T07:50:46;4.40;99.90
42979;DHT22;28616;44.746;19.678;2023-02-01T07:53:12;4.60;99.90
42979;DHT22;28616;44.746;19.678;2023-02-01T07:55:38;4.60;99.90
42979;DHT22;28616;44.746;19.678;2023-02-01T07:58:04;4.70;99.90
42979;DHT22;28616;44.746;19.678;2023-02-01T08:00:30;4.70;99.90
42979;DHT22;28616;44.746;19.678;2023-02-01T08:03:14;4.80;99.90
42979;DHT22;28616;44.746;19.678;2023-02-01T08:05:40;5.00;99.90
42979;DHT22;28616;44.746;19.678;2023-02-01T08:08:06;5.20;99.90
42979;DHT22;28616;44.746;19.678;2023-02-01T08:10:32;5.20;99.90
42979;DHT22;28616;44.746;19.678;2023-02-01T08:13:00;5.20;99.90
42979;DHT22;28616;44.746;19.678;2023-02-01T08:15:29;5.10;99.90
42979;DHT22;28616;44.746;19.678;2023-02-01T08:17:55;5.10;99.90
42979;DHT22;28616;44.746;19.678;2023-02-01T08:20:23;5.20;99.90
42979;DHT22;28616;44.746;19.678;2023-02-01T08:22:50;5.40;99.90
42979;DHT22;28616;44.746;19.678;2023-02-01T08:25:15;5.50;99.90
42979;DHT22;28616;44.746;19.678;2023-02-01T08:27:41;5.70;99.90
42979;DHT22;28616;44.746;19.678;2023-02-01T08:30:09;5.90;99.90
42979;DHT22;28616;44.746;19.678;2023-02-01T08:32:37;6.00;99.90
42979;DHT22;28616;44.746;19.678;2023-02-01T08:35:03;6.00;99.90
42979;DHT22;28616;44.746;19.678;2023-02-01T08:37:29;6.10;99.90
42979;DHT22;28616;44.746;19.678;2023-02-01T08:39:56;6.20;99.90
42979;DHT22;28616;44.746;19.678;2023-02-01T08:42:21;6.40;99.90
42979;DHT22;28616;44.746;19.678;2023-02-01T08:45:06;6.50;99.90
42979;DHT22;28616;44.746;19.678;2023-02-01T08:47:33;6.40;99.90
42979;DHT22;28616;44.746;19.678;2023-02-01T08:49:59;6.30;99.90
42979;DHT22;28616;44.746;19.678;2023-02-01T08:52:25;6.30;99.90
42979;DHT22;28616;44.746;19.678;2023-02-01T08:54:50;6.40;99.90
42979;DHT22;28616;44.746;19.678;2023-02-01T08:57:16;6.60;99.90
42979;DHT22;28616;44.746;19.678;2023-02-01T08:59:42;6.60;99.90
42979;DHT22;28616;44.746;19.678;2023-02-01T09:02:14;6.60;99.90
42979;DHT22;28616;44.746;19.678;2023-02-01T09:04:40;6.60;99.90
42979;DHT22;28616;44.746;19.678;2023-02-01T09:07:07;6.70;99.90
42979;DHT22;28616;44.746;19.678;2023-02-01T09:09:32;6.70;99.90
42979;DHT22;28616;44.746;19.678;2023-02-01T09:11:58;6.80;99.00
42979;DHT22;28616;44.746;19.678;2023-02-01T09:14:24;6.90;99.80
42979;DHT22;28616;44.746;19.678;2023-02-01T09:16:50;7.00;98.80
42979;DHT22;28616;44.746;19.678;2023-02-01T09:19:15;7.10;98.40
42979;DHT22;28616;44.746;19.678;2023-02-01T09:21:41;7.20;97.40
42979;DHT22;28616;44.746;19.678;2023-02-01T09:24:10;7.20;97.20
42979;DHT22;28616;44.746;19.678;2023-02-01T09:26:36;7.30;97.90
42979;DHT22;28616;44.746;19.678;2023-02-01T09:29:02;7.40;97.50
42979;DHT22;28616;44.746;19.678;2023-02-01T09:31:29;8.00;96.70
42979;DHT22;28616;44.746;19.678;2023-02-01T09:33:55;8.20;96.60
42979;DHT22;28616;44.746;19.678;2023-02-01T09:36:21;8.30;95.40
42979;DHT22;28616;44.746;19.678;2023-02-01T09:38:49;8.20;95.10
42979;DHT22;28616;44.746;19.678;2023-02-01T09:41:40;8.10;95.10
42979;DHT22;28616;44.746;19.678;2023-02-01T09:46:40;8.10;94.90
42979;DHT22;28616;44.746;19.678;2023-02-01T09:49:15;8.20;95.80
42979;DHT22;28616;44.746;19.678;2023-02-01T09:51:44;8.50;94.20
42979;DHT22;28616;44.746;19.678;2023-02-01T09:54:22;9.00;92.40
42979;DHT22;28616;44.746;19.678;2023-02-01T09:56:58;9.60;92.10
42979;DHT22;28616;44.746;19.678;2023-02-01T10:01:57;10.60;87.50
42979;DHT22;28616;44.746;19.678;2023-02-01T10:04:25;11.00;84.10
42979;DHT22;28616;44.746;19.678;2023-02-01T10:09:33;11.30;76.20
42979;DHT22;28616;44.746;19.678;2023-02-01T10:15:09;12.10;70.70
42979;DHT22;28616;44.746;19.678;2023-02-01T10:26:37;13.60;58.20
42979;DHT22;28616;44.746;19.678;2023-02-01T10:29:17;13.90;53.90
42979;DHT22;28616;44.746;19.678;2023-02-01T10:31:44;14.20;52.20
42979;DHT22;28616;44.746;19.678;2023-02-01T10:34:15;14.40;51.90
42979;DHT22;28616;44.746;19.678;2023-02-01T10:36:53;14.30;50.80
42979;DHT22;28616;44.746;19.678;2023-02-01T10:39:19;14.50;49.90
42979;DHT22;28616;44.746;19.678;2023-02-01T10:41:46;14.90;50.50
42979;DHT22;28616;44.746;19.678;2023-02-01T10:44:18;15.00;46.70
42979;DHT22;28616;44.746;19.678;2023-02-01T10:46:45;15.10;45.50
42979;DHT22;28616;44.746;19.678;2023-02-01T10:49:36;15.40;45.10
42979;DHT22;28616;44.746;19.678;2023-02-01T10:52:20;15.90;44.20
42979;DHT22;28616;44.746;19.678;2023-02-01T10:54:46;16.10;45.10
42979;DHT22;28616;44.746;19.678;2023-02-01T10:57:32;16.60;42.60
42979;DHT22;28616;44.746;19.678;2023-02-01T11:00:03;17.00;43.50
42979;DHT22;28616;44.746;19.678;2023-02-01T11:02:43;17.20;40.10
42979;DHT22;28616;44.746;19.678;2023-02-01T11:05:10;17.10;41.00
42979;DHT22;28616;44.746;19.678;2023-02-01T11:07:39;16.50;39.20
42979;DHT22;28616;44.746;19.678;2023-02-01T11:10:36;16.90;40.20
42979;DHT22;28616;44.746;19.678;2023-02-01T11:13:04;16.90;39.60
42979;DHT22;28616;44.746;19.678;2023-02-01T11:15:30;16.60;40.80
42979;DHT22;28616;44.746;19.678;2023-02-01T11:17:55;16.40;39.50
42979;DHT22;28616;44.746;19.678;2023-02-01T11:20:39;16.70;40.30
42979;DHT22;28616;44.746;19.678;2023-02-01T11:23:15;16.80;39.60
42979;DHT22;28616;44.746;19.678;2023-02-01T11:26:00;16.60;38.90
42979;DHT22;28616;44.746;19.678;2023-02-01T11:28:31;16.40;39.40
42979;DHT22;28616;44.746;19.678;2023-02-01T11:31:02;16.60;38.50
42979;DHT22;28616;44.746;19.678;2023-02-01T11:33:35;16.30;41.00
42979;DHT22;28616;44.746;19.678;2023-02-01T11:36:17;16.30;42.00
42979;DHT22;28616;44.746;19.678;2023-02-01T11:39:37;15.60;43.10
42979;DHT22;28616;44.746;19.678;2023-02-01T11:44:38;14.30;43.00
42979;DHT22;28616;44.746;19.678;2023-02-01T11:47:26;13.80;43.90
42979;DHT22;28616;44.746;19.678;2023-02-01T11:50:01;14.00;45.00
42979;DHT22;28616;44.746;19.678;2023-02-01T12:11:33;13.70;45.70
42979;DHT22;28616;44.746;19.678;2023-02-01T12:22:41;13.30;47.50
42979;DHT22;28616;44.746;19.678;2023-02-01T12:28:16;12.90;48.10
42979;DHT22;28616;44.746;19.678;2023-02-01T12:33:37;12.60;49.10
42979;DHT22;28616;44.746;19.678;2023-02-01T12:44:50;12.10;50.20
42979;DHT22;28616;44.746;19.678;2023-02-01T12:47:35;11.90;49.60
42979;DHT22;28616;44.746;19.678;2023-02-01T12:50:06;11.80;49.80
42979;DHT22;28616;44.746;19.678;2023-02-01T12:52:51;11.90;50.70
42979;DHT22;28616;44.746;19.678;2023-02-01T12:58:01;11.80;50.80
42979;DHT22;28616;44.746;19.678;2023-02-01T13:00:36;11.80;52.30
42979;DHT22;28616;44.746;19.678;2023-02-01T13:05:55;11.70;52.00
42979;DHT22;28616;44.746;19.678;2023-02-01T13:08:37;11.60;52.30
42979;DHT22;28616;44.746;19.678;2023-02-01T13:11:09;11.40;52.70
42979;DHT22;28616;44.746;19.678;2023-02-01T13:16:38;11.10;52.80
42979;DHT22;28616;44.746;19.678;2023-02-01T13:19:27;11.10;52.70
42979;DHT22;28616;44.746;19.678;2023-02-01T13:22:06;11.20;53.50
42979;DHT22;28616;44.746;19.678;2023-02-01T13:24:38;11.20;53.40
42979;DHT22;28616;44.746;19.678;2023-02-01T13:27:05;11.10;54.70
42979;DHT22;28616;44.746;19.678;2023-02-01T13:29:33;11.20;55.00
42979;DHT22;28616;44.746;19.678;2023-02-01T13:43:53;10.90;56.10
42979;DHT22;28616;44.746;19.678;2023-02-01T13:46:21;10.80;56.90
42979;DHT22;28616;44.746;19.678;2023-02-01T13:48:56;10.70;56.40
42979;DHT22;28616;44.746;19.678;2023-02-01T13:51:50;10.60;55.40
42979;DHT22;28616;44.746;19.678;2023-02-01T13:54:36;10.60;58.00
42979;DHT22;28616;44.746;19.678;2023-02-01T13:57:04;10.60;58.20
42979;DHT22;28616;44.746;19.678;2023-02-01T14:05:01;10.50;60.30
42979;DHT22;28616;44.746;19.678;2023-02-01T14:07:27;10.50;60.00
42979;DHT22;28616;44.746;19.678;2023-02-01T14:09:53;10.40;61.30
42979;DHT22;28616;44.746;19.678;2023-02-01T14:12:48;10.40;61.80
42979;DHT22;28616;44.746;19.678;2023-02-01T14:15:25;10.20;62.80
42979;DHT22;28616;44.746;19.678;2023-02-01T14:17:52;10.20;62.60
42979;DHT22;28616;44.746;19.678;2023-02-01T14:20:41;10.10;62.80
42979;DHT22;28616;44.746;19.678;2023-02-01T14:23:19;10.00;63.20
42979;DHT22;28616;44.746;19.678;2023-02-01T14:25:48;10.00;64.20
42979;DHT22;28616;44.746;19.678;2023-02-01T14:28:29;9.90;65.10
42979;DHT22;28616;44.746;19.678;2023-02-01T14:31:14;9.80;64.00
42979;DHT22;28616;44.746;19.678;2023-02-01T14:33:41;9.70;63.70
42979;DHT22;28616;44.746;19.678;2023-02-01T14:36:11;9.60;64.40
42979;DHT22;28616;44.746;19.678;2023-02-01T14:38:38;9.60;64.70
42979;DHT22;28616;44.746;19.678;2023-02-01T14:41:18;9.50;65.40
42979;DHT22;28616;44.746;19.678;2023-02-01T14:43:50;9.40;65.60
42979;DHT22;28616;44.746;19.678;2023-02-01T14:46:16;9.40;66.60
42979;DHT22;28616;44.746;19.678;2023-02-01T14:48:44;9.30;66.90
42979;DHT22;28616;44.746;19.678;2023-02-01T14:51:14;9.30;68.40
42979;DHT22;28616;44.746;19.678;2023-02-01T14:53:40;9.20;68.10
42979;DHT22;28616;44.746;19.678;2023-02-01T14:56:14;9.20;68.50
42979;DHT22;28616;44.746;19.678;2023-02-01T15:04:00;9.00;69.00
42979;DHT22;28616;44.746;19.678;2023-02-01T15:12:17;8.80;69.60
42979;DHT22;28616;44.746;19.678;2023-02-01T15:15:24;8.70;70.20
42979;DHT22;28616;44.746;19.678;2023-02-01T15:17:54;8.70;71.00
42979;DHT22;28616;44.746;19.678;2023-02-01T15:20:21;8.60;70.80
42979;DHT22;28616;44.746;19.678;2023-02-01T15:22:57;8.60;71.10
42979;DHT22;28616;44.746;19.678;2023-02-01T15:25:29;8.50;72.10
42979;DHT22;28616;44.746;19.678;2023-02-01T15:27:56;8.50;72.30
42979;DHT22;28616;44.746;19.678;2023-02-01T15:30:32;8.40;72.50
42979;DHT22;28616;44.746;19.678;2023-02-01T15:33:25;8.40;72.80
42979;DHT22;28616;44.746;19.678;2023-02-01T15:35:53;8.30;73.90
42979;DHT22;28616;44.746;19.678;2023-02-01T15:41:20;8.20;74.70
42979;DHT22;28616;44.746;19.678;2023-02-01T15:46:36;8.10;75.20
42979;DHT22;28616;44.746;19.678;2023-02-01T15:49:05;8.10;76.10
42979;DHT22;28616;44.746;19.678;2023-02-01T15:51:43;8.00;76.80
42979;DHT22;28616;44.746;19.678;2023-02-01T15:54:16;7.90;78.40
42979;DHT22;28616;44.746;19.678;2023-02-01T15:56:55;7.90;77.70
42979;DHT22;28616;44.746;19.678;2023-02-01T15:59:29;7.80;77.70
42979;DHT22;28616;44.746;19.678;2023-02-01T16:01:56;7.80;77.50
42979;DHT22;28616;44.746;19.678;2023-02-01T16:04:26;7.80;77.50
42979;DHT22;28616;44.746;19.678;2023-02-01T16:07:03;7.80;78.50
42979;DHT22;28616;44.746;19.678;2023-02-01T16:09:53;7.70;78.70
42979;DHT22;28616;44.746;19.678;2023-02-01T16:12:30;7.70;79.60
42979;DHT22;28616;44.746;19.678;2023-02-01T16:14:57;7.60;80.20
42979;DHT22;28616;44.746;19.678;2023-02-01T16:17:23;7.60;80.90
42979;DHT22;28616;44.746;19.678;2023-02-01T16:19:48;7.50;81.40
42979;DHT22;28616;44.746;19.678;2023-02-01T16:22:14;7.40;81.00
42979;DHT22;28616;44.746;19.678;2023-02-01T16:24:40;7.40;81.10
42979;DHT22;28616;44.746;19.678;2023-02-01T16:27:05;7.40;81.70
42979;DHT22;28616;44.746;19.678;2023-02-01T16:29:32;7.30;82.60
42979;DHT22;28616;44.746;19.678;2023-02-01T16:31:59;7.30;83.00
42979;DHT22;28616;44.746;19.678;2023-02-01T16:34:25;7.30;83.30
42979;DHT22;28616;44.746;19.678;2023-02-01T16:36:51;7.20;83.70
42979;DHT22;28616;44.746;19.678;2023-02-01T16:39:19;7.10;83.90
42979;DHT22;28616;44.746;19.678;2023-02-01T16:41:45;7.10;84.10
42979;DHT22;28616;44.746;19.678;2023-02-01T16:44:11;7.00;84.60
42979;DHT22;28616;44.746;19.678;2023-02-01T16:46:40;7.00;85.60
42979;DHT22;28616;44.746;19.678;2023-02-01T16:49:24;7.00;87.10
42979;DHT22;28616;44.746;19.678;2023-02-01T16:51:51;6.90;87.00
42979;DHT22;28616;44.746;19.678;2023-02-01T16:54:20;6.90;87.00
42979;DHT22;28616;44.746;19.678;2023-02-01T16:56:46;6.80;88.30
42979;DHT22;28616;44.746;19.678;2023-02-01T16:59:12;6.80;89.10
42979;DHT22;28616;44.746;19.678;2023-02-01T17:01:40;6.70;90.30
42979;DHT22;28616;44.746;19.678;2023-02-01T17:04:11;6.70;91.00
42979;DHT22;28616;44.746;19.678;2023-02-01T17:06:38;6.70;91.70
42979;DHT22;28616;44.746;19.678;2023-02-01T17:09:04;6.70;92.20
42979;DHT22;28616;44.746;19.678;2023-02-01T17:11:30;6.60;93.00
42979;DHT22;28616;44.746;19.678;2023-02-01T17:14:16;6.60;93.90
42979;DHT22;28616;44.746;19.678;2023-02-01T17:16:42;6.60;94.60
42979;DHT22;28616;44.746;19.678;2023-02-01T17:19:20;6.50;95.80
42979;DHT22;28616;44.746;19.678;2023-02-01T17:21:51;6.60;97.20
42979;DHT22;28616;44.746;19.678;2023-02-01T17:24:22;6.50;98.40
42979;DHT22;28616;44.746;19.678;2023-02-01T17:26:49;6.50;99.90
42979;DHT22;28616;44.746;19.678;2023-02-01T17:29:16;6.60;99.90
42979;DHT22;28616;44.746;19.678;2023-02-01T17:31:45;6.70;99.90
42979;DHT22;28616;44.746;19.678;2023-02-01T17:34:12;6.70;99.90
42979;DHT22;28616;44.746;19.678;2023-02-01T17:36:40;6.80;99.90
42979;DHT22;28616;44.746;19.678;2023-02-01T17:39:08;6.80;99.90
42979;DHT22;28616;44.746;19.678;2023-02-01T17:41:34;6.80;99.90
42979;DHT22;28616;44.746;19.678;2023-02-01T17:44:00;6.70;99.90
42979;DHT22;28616;44.746;19.678;2023-02-01T17:46:26;6.70;99.90
42979;DHT22;28616;44.746;19.678;2023-02-01T17:48:53;6.80;99.90
42979;DHT22;28616;44.746;19.678;2023-02-01T17:51:24;7.00;99.90
42979;DHT22;28616;44.746;19.678;2023-02-01T17:53:51;7.00;99.90
42979;DHT22;28616;44.746;19.678;2023-02-01T17:56:22;7.00;99.90